Fairview, SD (57027)

6:16 AM CDT on August 29, 2014 (GMT -0500)
Campingfarmer | Change Station
CLOSE
Current Station
Personal Weather Station
Location: Rock Valley, IA
Elevation: 1253 ft
Nearby Weather Stations

Elev 1253 ft 43.19 °N, 96.39 °W | Updated 51 seconds ago

Mostly Cloudy
Mostly Cloudy
70.3 °F
Feels Like 70.3 °F
N
1.6
Wind Variable Wind from South
Gusts 2.2 mph

Today
High -- | Low -- °F
--% Chance of Precip.
Yesterday
High -- | Low -- °F
Precip. -- in
6:47 AM 8:06 PM
Waxing Crescent, 13% visible
Pressure 29.75 in
Visibility 10.0 miles
Clouds Scattered Clouds 1500 ft
Overcast 21000 ft
Dew Point 70 °F
Humidity 98%
Rainfall 0.00 in
Snow Depth Not available.
UV 0 out of 12
Pollen 8.60 out of 12
Air Quality Not available.
Flu Activity Not available.
METAR KFSD 291056Z 16006KT 10SM SCT015 OVC210 21/20 A2977 RMK AO2 SLP073 T02110200

More Conditions Fewer Conditions

Pressure 29.75 in
Visibility 10.0 miles
Clouds Scattered Clouds 1500 ft
Overcast 21000 ft
Dew Point 70 °F
Humidity 98%
Rainfall 0.00 in
Snow Depth Not available.
UV 0 out of 12
Pollen 8.60 out of 12
Air Quality Not available.
Flu Activity Not available.
METAR KFSD 291056Z 16006KT 10SM SCT015 OVC210 21/20 A2977 RMK AO2 SLP073 T02110200

More Conditions Fewer Conditions

10-Day Weather Forecast

Almanac

Astronomy

Aug. 29, 2014 Rise Set
Actual Time 6:47 AM CDT 8:06 PM CDT
Civil Twilight 6:17 AM CDT 8:35 PM CDT
Nautical Twilight 5:42 AM CDT 9:11 PM CDT
Astronomical Twilight 5:04 AM CDT 9:48 PM CDT
Moon 10:45 AM CDT 9:56 PM CDT
Length of Visible Light 14h 18m
Length of Day
13h 19m
Tomorrow will be 2m 49s shorter.
Waxing Crescent, 13% of the Moon is Illuminated
Today
Waxing Crescent
Sep 2
First Quarter
Sep 8
Full
Sep 15
Last Quarter
Sep 24
New

Today's Extremes

State Highs State Lows

Community

WunderPhotos

Upload Photos

1,748,211 photos uploaded!

Nearby

Snow Depth

Station Depth Elevation
Blind Park 0 in 6890 ft

Earthquake Activity

City Distance Mag. Time & Date
No recent earthquake activity has been reported nearby.
Minimum magnitude displayed is 2.5.

Coastal Water Temperatures

Place Temperature
No Stations Reporting

Nearby Weather Stations